createdAt,value
2022-11-18T00:01:08.204Z,75.05
2022-11-18T00:05:11.615Z,74.66
2022-11-18T00:09:15.333Z,74.03
2022-11-18T00:13:37.796Z,74.38
2022-11-18T00:17:41.046Z,73.96
2022-11-18T00:21:44.356Z,74.21
2022-11-18T00:25:47.950Z,74.51
2022-11-18T00:29:52.571Z,74.85
2022-11-18T00:33:55.940Z,74.66
2022-11-18T00:37:59.343Z,74.27
2022-11-18T00:42:20.302Z,74.50
2022-11-18T00:46:25.273Z,74.40
2022-11-18T00:50:28.882Z,74.41
2022-11-18T00:54:31.912Z,74.52
2022-11-18T00:58:35.554Z,74.26
2022-11-18T01:02:40.270Z,74.08
2022-11-18T01:06:44.361Z,74.25
2022-11-18T01:10:49.174Z,74.64
2022-11-18T01:14:52.677Z,74.41
2022-11-18T01:18:57.422Z,74.55
2022-11-18T01:23:00.940Z,74.03
2022-11-18T01:27:04.352Z,74.40
2022-11-18T01:31:09.535Z,74.24
2022-11-18T01:35:15.460Z,74.84
2022-11-18T01:39:18.780Z,74.52
2022-11-18T01:43:24.003Z,75.04
2022-11-18T01:47:30.261Z,75.13
2022-11-18T01:51:38.558Z,74.95
2022-11-18T01:55:48.606Z,74.85
2022-11-18T01:59:56.137Z,75.22
2022-11-18T02:03:59.714Z,75.34
2022-11-18T02:08:05.413Z,75.22
2022-11-18T02:12:09.883Z,75.15
2022-11-18T02:16:21.530Z,75.30
2022-11-18T02:20:31.497Z,75.50
2022-11-18T02:24:44.733Z,75.30
2022-11-18T02:29:03.199Z,74.74
2022-11-18T02:33:12.739Z,74.79
2022-11-18T02:37:22.688Z,74.82
2022-11-18T02:41:29.723Z,74.93
2022-11-18T02:45:35.243Z,74.77
2022-11-18T02:49:43.592Z,74.87
2022-11-18T02:53:49.323Z,74.47
2022-11-18T02:57:54.688Z,73.80
2022-11-18T03:02:00.165Z,73.71
2022-11-18T03:06:15.578Z,73.94
2022-11-18T03:10:21.107Z,74.11
2022-11-18T03:14:30.263Z,74.35
2022-11-18T03:18:43.786Z,74.53
2022-11-18T03:22:54.174Z,74.41
2022-11-18T03:27:08.013Z,74.41
2022-11-18T03:31:16.399Z,74.11
2022-11-18T03:35:25.151Z,74.76
2022-11-18T03:39:31.254Z,74.52
2022-11-18T03:43:40.051Z,74.67
2022-11-18T03:47:47.541Z,74.75
2022-11-18T03:51:57.704Z,75.15
2022-11-18T03:56:12.757Z,75.24
2022-11-18T04:00:20.496Z,75.22
2022-11-18T04:04:26.593Z,74.83
2022-11-18T04:08:36.829Z,75.03
2022-11-18T04:12:44.667Z,75.02
2022-11-18T04:16:52.241Z,74.94
2022-11-18T04:20:55.855Z,75.18
2022-11-18T04:25:00.602Z,74.87
2022-11-18T04:29:04.009Z,74.73
2022-11-18T04:33:07.142Z,74.85
2022-11-18T04:37:10.584Z,74.95
2022-11-18T04:41:15.322Z,74.87
2022-11-18T04:45:18.552Z,74.81
2022-11-18T04:49:21.988Z,75.03
2022-11-18T04:53:25.462Z,74.72
2022-11-18T04:57:29.904Z,74.64
2022-11-18T05:01:34.278Z,74.70
2022-11-18T05:05:37.810Z,74.04
2022-11-18T05:09:41.345Z,74.19
2022-11-18T05:13:44.777Z,74.33
2022-11-18T05:17:48.985Z,74.46
2022-11-18T05:21:52.609Z,74.70
2022-11-18T05:26:01.222Z,74.26
2022-11-18T05:30:08.335Z,74.34
2022-11-18T05:34:11.722Z,74.72
2022-11-18T05:38:15.157Z,74.58
2022-11-18T05:42:36.029Z,74.75
2022-11-18T05:46:40.884Z,74.66
2022-11-18T05:50:44.520Z,74.70
2022-11-18T05:54:52.912Z,74.78
2022-11-18T05:58:56.037Z,74.44
2022-11-18T06:03:02.260Z,73.77
2022-11-18T06:07:11.353Z,73.82
2022-11-18T06:11:18.833Z,73.98
2022-11-18T06:15:27.126Z,74.21
2022-11-18T06:19:32.986Z,74.36
2022-11-18T06:23:38.597Z,74.33
2022-11-18T06:27:42.455Z,74.42
2022-11-18T06:31:46.073Z,74.36
2022-11-18T06:35:52.215Z,74.30
2022-11-18T06:39:55.188Z,74.66
2022-11-18T06:43:59.010Z,74.43
2022-11-18T06:48:02.510Z,74.24
2022-11-18T06:52:07.461Z,74.28
2022-11-18T06:56:12.450Z,74.39
2022-11-18T07:00:17.269Z,74.30
2022-11-18T07:04:20.953Z,74.36
2022-11-18T07:08:25.744Z,74.23
2022-11-18T07:12:29.188Z,74.13
2022-11-18T07:16:32.360Z,74.28
2022-11-18T07:20:36.315Z,73.92
2022-11-18T07:24:41.473Z,74.17
2022-11-18T07:28:45.242Z,74.13
2022-11-18T07:32:48.769Z,74.32
2022-11-18T07:36:52.559Z,74.63
2022-11-18T07:40:57.854Z,74.69
2022-11-18T07:45:12.430Z,74.76
2022-11-18T07:49:16.237Z,74.94
2022-11-18T07:53:19.967Z,75.10
2022-11-18T07:57:24.856Z,75.09
2022-11-18T08:01:29.847Z,75.42
2022-11-18T08:05:33.387Z,75.56
2022-11-18T08:09:36.903Z,75.87
2022-11-18T08:13:41.856Z,75.93
2022-11-18T08:17:44.980Z,76.25
2022-11-18T08:21:48.591Z,76.32
2022-11-18T08:25:52.128Z,76.58
2022-11-18T08:29:56.754Z,76.60
2022-11-18T08:34:01.287Z,76.68
2022-11-18T08:38:04.349Z,76.36
2022-11-18T08:42:07.578Z,75.86
2022-11-18T08:46:12.613Z,75.71
2022-11-18T08:50:15.840Z,75.21
2022-11-18T08:54:18.989Z,75.31
2022-11-18T08:58:22.531Z,75.49
2022-11-18T09:02:27.689Z,75.18
2022-11-18T09:06:30.869Z,74.57
2022-11-18T09:10:34.610Z,74.19
2022-11-18T09:19:24.345Z,73.35
2022-11-18T09:23:26.731Z,73.26
2022-11-18T09:27:30.243Z,73.44
2022-11-18T09:31:33.727Z,73.65
2022-11-18T09:35:43.888Z,73.83
2022-11-18T09:39:47.335Z,73.20
2022-11-18T09:44:01.798Z,73.75
2022-11-18T09:48:17.060Z,73.93
2022-11-18T09:52:25.881Z,73.37
2022-11-18T09:56:29.658Z,73.45
2022-11-18T10:00:33.422Z,73.86
2022-11-18T10:04:36.975Z,73.34
2022-11-18T10:08:47.103Z,73.43
2022-11-18T10:12:57.486Z,73.39
2022-11-18T10:17:12.385Z,73.25
2022-11-18T10:21:25.883Z,73.52
2022-11-18T10:25:31.011Z,73.45
2022-11-18T10:29:34.418Z,73.00
2022-11-18T10:33:38.290Z,73.37
2022-11-18T10:38:09.264Z,73.56
2022-11-18T10:42:07.473Z,74.42
2022-11-18T10:46:25.492Z,73.58
2022-11-18T10:50:35.948Z,73.63
2022-11-18T10:54:40.084Z,72.87
2022-11-18T10:58:46.805Z,72.91
2022-11-18T11:02:50.675Z,71.72
2022-11-18T11:06:54.706Z,71.42
2022-11-18T11:10:59.274Z,71.56
2022-11-18T11:15:07.820Z,71.66
2022-11-18T11:19:15.003Z,72.47
2022-11-18T11:23:23.493Z,71.38
2022-11-18T11:32:15.051Z,71.71
2022-11-18T11:36:38.973Z,71.56
2022-11-18T11:40:50.702Z,71.26
2022-11-18T11:45:08.225Z,70.64
2022-11-18T11:49:20.935Z,70.53
2022-11-18T11:53:42.564Z,69.11
2022-11-18T11:57:59.552Z,68.82
2022-11-18T12:02:40.221Z,69.74
2022-11-18T12:06:48.406Z,69.09
2022-11-18T12:10:55.867Z,69.08
2022-11-18T12:15:05.632Z,69.21
2022-11-18T12:19:12.935Z,67.64
2022-11-18T12:23:31.494Z,68.42
2022-11-18T12:28:01.297Z,68.64
2022-11-18T12:32:06.163Z,67.70
2022-11-18T12:36:09.960Z,67.74
2022-11-18T12:40:34.699Z,69.33
2022-11-18T12:44:39.568Z,68.68
2022-11-18T12:48:43.559Z,68.33
2022-11-18T12:52:49.523Z,68.07
2022-11-18T12:56:55.247Z,68.67
2022-11-18T13:01:13.338Z,68.79
2022-11-18T13:05:23.119Z,68.69
2022-11-18T13:09:27.669Z,68.29
2022-11-18T13:13:34.628Z,68.30
2022-11-18T13:17:55.334Z,68.71
2022-11-18T13:22:19.613Z,68.94
2022-11-18T13:26:28.597Z,68.57
2022-11-18T13:30:36.916Z,68.82
2022-11-18T13:34:47.729Z,69.36
2022-11-18T13:38:58.152Z,69.01
2022-11-18T13:43:02.022Z,68.73
2022-11-18T13:47:17.520Z,68.96
2022-11-18T13:51:21.612Z,68.47
2022-11-18T13:55:27.177Z,69.14
2022-11-18T13:59:30.936Z,68.89
2022-11-18T14:03:47.576Z,68.28
2022-11-18T14:08:03.454Z,69.01
2022-11-18T14:16:36.901Z,69.46
2022-11-18T14:20:41.908Z,69.90
2022-11-18T14:24:45.946Z,70.02
2022-11-18T14:28:56.998Z,70.10
2022-11-18T14:33:22.429Z,70.45
2022-11-18T14:37:28.540Z,69.74
2022-11-18T14:41:49.837Z,69.84
2022-11-18T14:45:56.547Z,70.24
2022-11-18T14:50:00.118Z,70.36
2022-11-18T14:54:06.146Z,70.74
2022-11-18T14:58:14.650Z,70.74
2022-11-18T15:02:19.564Z,70.44
2022-11-18T15:06:23.795Z,70.30
2022-11-18T15:10:29.187Z,70.46
2022-11-18T15:14:32.701Z,70.24
2022-11-18T15:18:35.829Z,70.14
2022-11-18T15:22:39.425Z,70.72
2022-11-18T15:26:46.897Z,70.58
2022-11-18T15:30:50.466Z,70.54
2022-11-18T15:34:54.066Z,70.76
2022-11-18T15:38:57.018Z,70.47
2022-11-18T15:43:02.073Z,70.54
2022-11-18T15:47:05.960Z,70.71
2022-11-18T15:51:12.121Z,70.10
2022-11-18T15:55:15.875Z,70.21
2022-11-18T15:59:21.086Z,70.70
2022-11-18T16:03:27.650Z,70.20
2022-11-18T16:07:31.346Z,69.37
2022-11-18T16:11:52.538Z,69.71
2022-11-18T16:15:57.163Z,70.07
2022-11-18T16:20:00.941Z,70.46
2022-11-18T16:24:06.948Z,70.64
2022-11-18T16:28:10.513Z,70.80
2022-11-18T16:32:16.125Z,70.91
2022-11-18T16:36:19.177Z,71.29
2022-11-18T16:40:22.992Z,71.75
2022-11-18T16:44:26.447Z,71.52
2022-11-18T16:48:31.526Z,71.48
2022-11-18T16:52:35.126Z,71.78
2022-11-18T16:56:41.946Z,72.08
2022-11-18T17:01:16.725Z,72.28
2022-11-18T17:05:11.955Z,71.82
2022-11-18T17:09:17.233Z,72.28
2022-11-18T17:13:21.357Z,72.44
2022-11-18T17:17:24.415Z,72.40
2022-11-18T17:21:31.046Z,72.35
2022-11-18T17:25:36.153Z,72.12
2022-11-18T17:29:39.601Z,72.19
2022-11-18T17:33:43.609Z,72.50
2022-11-18T17:37:48.240Z,72.52
2022-11-18T17:42:11.840Z,72.76
2022-11-18T17:46:15.303Z,73.05
2022-11-18T17:50:20.509Z,73.07
2022-11-18T17:54:24.974Z,73.09
2022-11-18T17:58:28.623Z,73.43
2022-11-18T18:02:32.976Z,73.05
2022-11-18T18:06:36.471Z,73.29
2022-11-18T18:10:41.668Z,73.92
2022-11-18T18:14:45.450Z,73.75
2022-11-18T18:18:49.108Z,73.98
2022-11-18T18:22:53.845Z,73.55
2022-11-18T18:26:58.374Z,73.79
2022-11-18T18:35:18.899Z,73.66
2022-11-18T18:39:22.790Z,73.55
2022-11-18T18:43:27.732Z,73.67
2022-11-18T18:47:30.906Z,73.42
2022-11-18T18:51:39.148Z,73.30
2022-11-18T18:55:45.108Z,73.07
2022-11-18T18:59:50.376Z,73.51
2022-11-18T19:03:58.978Z,73.23
2022-11-18T19:08:02.291Z,73.44
2022-11-18T19:12:24.135Z,73.51
2022-11-18T19:16:29.647Z,73.95
2022-11-18T19:20:38.616Z,73.83
2022-11-18T19:24:49.759Z,73.71
2022-11-18T19:28:54.830Z,73.84
2022-11-18T19:33:00.987Z,74.01
2022-11-18T19:37:04.975Z,73.94
2022-11-18T19:41:10.716Z,74.10
2022-11-18T19:45:15.503Z,73.69
2022-11-18T19:49:21.824Z,73.21
2022-11-18T19:53:35.759Z,72.71
2022-11-18T19:57:42.440Z,73.13
2022-11-18T20:01:46.398Z,73.06
2022-11-18T20:05:53.924Z,73.61
2022-11-18T20:09:57.875Z,73.76
2022-11-18T20:14:01.504Z,73.85
2022-11-18T20:18:06.546Z,73.95
2022-11-18T20:22:12.292Z,74.53
2022-11-18T20:26:19.829Z,74.24
2022-11-18T20:30:24.117Z,74.49
2022-11-18T20:34:27.934Z,74.67
2022-11-18T20:38:37.660Z,74.50
2022-11-18T20:43:00.012Z,74.37
2022-11-18T20:47:03.626Z,74.90
2022-11-18T20:51:09.312Z,75.05
2022-11-18T20:55:17.741Z,74.82
2022-11-18T20:59:21.307Z,74.97
2022-11-18T21:03:25.974Z,74.91
2022-11-18T21:07:29.624Z,74.94
2022-11-18T21:11:39.150Z,74.86
2022-11-18T21:15:42.376Z,74.46
2022-11-18T21:19:48.495Z,74.78
2022-11-18T21:23:55.550Z,74.65
2022-11-18T21:28:00.353Z,74.86
2022-11-18T21:32:04.035Z,74.64
2022-11-18T21:36:08.284Z,74.57
2022-11-18T21:40:13.171Z,74.62
2022-11-18T21:44:17.736Z,74.73
2022-11-18T21:48:21.461Z,74.64
2022-11-18T21:52:25.045Z,74.45
2022-11-18T21:56:31.612Z,74.45
2022-11-18T22:00:36.721Z,74.20
2022-11-18T22:04:54.951Z,74.26
2022-11-18T22:08:59.527Z,74.13
2022-11-18T22:13:03.246Z,73.77
2022-11-18T22:17:09.512Z,74.00
2022-11-18T22:21:14.800Z,74.07
2022-11-18T22:25:17.993Z,73.38
2022-11-18T22:29:23.946Z,73.64
2022-11-18T22:33:29.057Z,73.34
2022-11-18T22:37:32.574Z,73.05
2022-11-18T22:41:53.482Z,73.13
2022-11-18T22:46:04.413Z,73.20
2022-11-18T22:50:09.626Z,72.70
2022-11-18T22:58:36.700Z,72.13
2022-11-18T23:02:40.314Z,72.71
2022-11-18T23:06:45.371Z,72.19
2022-11-18T23:10:48.764Z,72.44
2022-11-18T23:14:52.202Z,72.02
2022-11-18T23:18:55.722Z,71.97
2022-11-18T23:23:00.641Z,72.10
2022-11-18T23:27:04.148Z,71.69
2022-11-18T23:31:08.893Z,71.71
2022-11-18T23:35:12.285Z,72.12
2022-11-18T23:39:17.832Z,71.93
2022-11-18T23:43:21.256Z,71.84
2022-11-18T23:47:26.778Z,71.61
2022-11-18T23:51:30.430Z,71.80
2022-11-18T23:55:35.976Z,71.19
2022-11-18T23:59:39.439Z,71.48
